createdAt,value
2022-08-08T00:00:50.839Z,1.23
2022-08-08T00:02:34.414Z,1.20
2022-08-08T00:05:09.633Z,1.03
2022-08-08T00:07:43.991Z,1.20
2022-08-08T00:10:18.991Z,1.27
2022-08-08T00:13:10.238Z,1.10
2022-08-08T00:15:57.724Z,1.43
2022-08-08T00:18:36.008Z,1.20
2022-08-08T00:21:05.463Z,1.30
2022-08-08T00:23:47.717Z,1.17
2022-08-08T00:26:29.455Z,1.30
2022-08-08T00:29:08.016Z,1.23
2022-08-08T00:32:14.899Z,1.10
2022-08-08T00:35:18.308Z,1.20
2022-08-08T00:38:02.903Z,1.20
2022-08-08T00:41:14.319Z,1.80
2022-08-08T00:44:03.402Z,1.00
2022-08-08T00:47:14.065Z,1.20
2022-08-08T00:50:16.835Z,1.10
2022-08-08T00:52:57.959Z,1.07
2022-08-08T00:55:55.907Z,1.07
2022-08-08T00:59:44.452Z,0.90
2022-08-08T01:03:59.627Z,1.03
2022-08-08T01:06:17.187Z,1.17
2022-08-08T01:09:35.850Z,1.10
2022-08-08T01:12:41.904Z,1.10
2022-08-08T01:15:44.075Z,1.00
2022-08-08T01:19:25.272Z,1.20
2022-08-08T01:22:32.426Z,1.20
2022-08-08T01:25:40.295Z,1.10
2022-08-08T01:28:27.765Z,1.00
2022-08-08T01:32:14.794Z,1.00
2022-08-08T01:34:56.248Z,1.00
2022-08-08T01:38:03.229Z,1.40
2022-08-08T01:40:53.507Z,1.17
2022-08-08T01:43:39.066Z,1.30
2022-08-08T01:46:31.197Z,1.07
2022-08-08T01:49:06.156Z,1.20
2022-08-08T01:52:28.086Z,1.10
2022-08-08T01:55:45.198Z,1.10
2022-08-08T01:58:13.342Z,1.10
2022-08-08T02:00:57.368Z,1.10
2022-08-08T02:03:54.851Z,1.30
2022-08-08T02:06:40.917Z,1.30
2022-08-08T02:10:01.660Z,1.10
2022-08-08T02:12:24.605Z,1.00
2022-08-08T02:15:01.026Z,1.10
2022-08-08T02:17:45.547Z,1.20
2022-08-08T02:21:01.687Z,1.10
2022-08-08T02:23:22.655Z,1.10
2022-08-08T02:26:01.625Z,1.10
2022-08-08T02:28:42.995Z,1.20
2022-08-08T02:31:59.259Z,1.10
2022-08-08T02:35:07.951Z,1.00
2022-08-08T02:37:53.199Z,1.03
2022-08-08T02:40:39.003Z,1.00
2022-08-08T02:44:37.591Z,1.10
2022-08-08T02:47:19.595Z,1.10
2022-08-08T02:50:19.241Z,1.13
2022-08-08T02:53:11.041Z,1.20
2022-08-08T02:56:27.752Z,1.00
2022-08-08T02:59:56.889Z,1.40
2022-08-08T03:02:57.261Z,1.27
2022-08-08T03:05:57.271Z,1.30
2022-08-08T03:09:06.117Z,1.07
2022-08-08T03:12:13.907Z,1.40
2022-08-08T03:16:01.861Z,1.10
2022-08-08T03:18:06.889Z,1.23
2022-08-08T03:20:47.066Z,1.40
2022-08-08T03:23:24.273Z,1.40
2022-08-08T03:26:07.718Z,1.23
2022-08-08T03:28:42.524Z,1.20
2022-08-08T03:31:26.547Z,1.30
2022-08-08T03:34:01.141Z,1.20
2022-08-08T03:36:31.952Z,1.50
2022-08-08T03:39:14.816Z,1.57
2022-08-08T03:42:27.356Z,1.23
2022-08-08T03:44:39.036Z,1.10
2022-08-08T03:47:20.669Z,1.10
2022-08-08T03:50:00.337Z,1.57
2022-08-08T03:52:35.751Z,1.30
2022-08-08T03:55:20.352Z,1.23
2022-08-08T03:58:35.256Z,1.30
2022-08-08T04:01:02.127Z,1.50
2022-08-08T04:03:58.573Z,1.30
2022-08-08T04:06:30.614Z,1.10
2022-08-08T04:09:06.709Z,1.20
2022-08-08T04:11:59.046Z,1.30
2022-08-08T04:14:45.027Z,1.20
2022-08-08T04:17:22.641Z,1.40
2022-08-08T04:20:02.392Z,1.20
2022-08-08T04:22:34.228Z,1.20
2022-08-08T04:25:03.134Z,1.27
2022-08-08T04:28:03.054Z,1.30
2022-08-08T04:30:23.061Z,1.20
2022-08-08T04:32:53.985Z,1.20
2022-08-08T04:35:26.349Z,1.30
2022-08-08T04:37:57.543Z,1.17
2022-08-08T04:40:32.972Z,1.40
2022-08-08T04:43:05.588Z,1.30
2022-08-08T04:45:41.559Z,1.60
2022-08-08T04:48:11.399Z,1.40
2022-08-08T04:50:44.668Z,1.40
2022-08-08T04:54:36.448Z,1.40
2022-08-08T04:56:09.181Z,1.20
2022-08-08T04:58:39.215Z,1.57
2022-08-08T05:01:11.045Z,1.30
2022-08-08T05:04:07.578Z,1.23
2022-08-08T05:06:39.125Z,1.20
2022-08-08T05:09:08.744Z,1.40
2022-08-08T05:11:40.834Z,1.40
2022-08-08T05:14:14.761Z,1.30
2022-08-08T05:16:51.428Z,1.40
2022-08-08T05:20:11.690Z,1.20
2022-08-08T05:22:21.214Z,1.17
2022-08-08T05:24:51.211Z,1.50
2022-08-08T05:27:22.567Z,1.30
2022-08-08T05:29:54.874Z,1.50
2022-08-08T05:32:29.907Z,1.57
2022-08-08T05:35:05.274Z,1.50
2022-08-08T05:37:53.182Z,1.50
2022-08-08T05:40:30.376Z,1.57
2022-08-08T05:43:17.185Z,1.73
2022-08-08T05:46:03.058Z,1.87
2022-08-08T05:48:34.708Z,1.67
2022-08-08T05:51:13.452Z,1.60
2022-08-08T05:54:25.797Z,1.90
2022-08-08T05:56:47.666Z,1.77
2022-08-08T05:59:58.952Z,1.93
2022-08-08T06:02:39.025Z,1.70
2022-08-08T06:05:34.120Z,1.67
2022-08-08T06:08:02.757Z,1.70
2022-08-08T06:10:41.059Z,1.77
2022-08-08T06:13:12.339Z,1.90
2022-08-08T06:15:50.460Z,1.83
2022-08-08T06:18:26.057Z,1.90
2022-08-08T06:20:57.296Z,1.63
2022-08-08T06:23:53.306Z,1.97
2022-08-08T06:26:44.032Z,2.13
2022-08-08T06:29:26.373Z,2.07
2022-08-08T06:32:10.097Z,2.20
2022-08-08T06:34:52.568Z,2.00
2022-08-08T06:37:39.609Z,2.10
2022-08-08T06:40:16.411Z,2.07
2022-08-08T06:42:55.445Z,2.37
2022-08-08T06:45:33.823Z,2.17
2022-08-08T06:48:04.299Z,2.40
2022-08-08T06:50:39.312Z,2.30
2022-08-08T06:53:17.610Z,2.60
2022-08-08T06:56:02.802Z,2.23
2022-08-08T06:58:36.954Z,2.27
2022-08-08T07:01:11.493Z,2.57
2022-08-08T07:04:37.098Z,2.53
2022-08-08T07:06:58.093Z,2.90
2022-08-08T07:09:45.621Z,2.60
2022-08-08T07:12:35.331Z,2.40
2022-08-08T07:15:23.400Z,2.57
2022-08-08T07:18:35.879Z,2.40
2022-08-08T07:20:55.572Z,2.30
2022-08-08T07:24:02.070Z,2.93
2022-08-08T07:26:32.847Z,2.50
2022-08-08T07:29:08.325Z,2.60
2022-08-08T07:31:43.583Z,2.73
2022-08-08T07:34:20.073Z,2.60
2022-08-08T07:36:58.624Z,2.60
2022-08-08T07:39:35.469Z,2.90
2022-08-08T07:42:18.855Z,2.60
2022-08-08T07:44:51.265Z,2.93
2022-08-08T07:47:29.215Z,2.53
2022-08-08T07:50:09.869Z,2.60
2022-08-08T07:52:43.670Z,2.77
2022-08-08T07:55:22.181Z,2.63
2022-08-08T07:58:04.001Z,2.43
2022-08-08T08:00:41.971Z,2.40
2022-08-08T08:03:23.921Z,2.60
2022-08-08T08:05:57.244Z,2.50
2022-08-08T08:08:41.817Z,2.70
2022-08-08T08:11:23.217Z,2.50
2022-08-08T08:14:07.870Z,2.67
2022-08-08T08:16:43.456Z,2.63
2022-08-08T08:19:19.626Z,2.50
2022-08-08T08:21:57.145Z,2.70
2022-08-08T08:24:37.487Z,2.63
2022-08-08T08:27:09.512Z,2.50
2022-08-08T08:29:39.723Z,2.47
2022-08-08T08:32:10.971Z,2.83
2022-08-08T08:34:43.499Z,2.60
2022-08-08T08:37:30.343Z,2.17
2022-08-08T08:40:02.308Z,2.40
2022-08-08T08:42:37.577Z,2.70
2022-08-08T08:45:23.519Z,2.33
2022-08-08T08:48:01.078Z,2.37
2022-08-08T08:50:36.111Z,2.27
2022-08-08T08:53:28.136Z,3.03
2022-08-08T08:56:09.091Z,2.23
2022-08-08T08:58:46.834Z,3.10
2022-08-08T09:01:24.801Z,2.10
2022-08-08T09:03:56.718Z,2.47
2022-08-08T09:06:34.074Z,2.53
2022-08-08T09:09:07.376Z,2.40
2022-08-08T09:12:02.122Z,2.73
2022-08-08T09:14:42.240Z,2.47
2022-08-08T09:17:18.448Z,2.30
2022-08-08T09:22:02.282Z,2.20
2022-08-08T09:22:36.696Z,2.50
2022-08-08T09:25:10.415Z,1.80
2022-08-08T09:27:41.797Z,2.10
2022-08-08T09:30:27.859Z,2.03
2022-08-08T09:33:11.904Z,1.90
2022-08-08T09:35:51.191Z,1.90
2022-08-08T09:38:34.803Z,2.07
2022-08-08T09:42:15.153Z,1.83
2022-08-08T09:44:34.248Z,1.98
2022-08-08T09:47:26.589Z,2.03
2022-08-08T09:50:03.487Z,1.90
2022-08-08T09:52:57.587Z,1.80
2022-08-08T09:55:51.909Z,1.80
2022-08-08T09:58:25.870Z,1.70
2022-08-08T10:00:59.932Z,1.67
2022-08-08T10:03:35.648Z,1.92
2022-08-08T10:06:17.664Z,1.80
2022-08-08T10:08:46.820Z,1.90
2022-08-08T10:12:27.250Z,1.77
2022-08-08T10:14:07.397Z,2.10
2022-08-08T10:16:56.809Z,2.00
2022-08-08T10:19:57.201Z,1.90
2022-08-08T10:22:26.889Z,2.08
2022-08-08T10:25:04.744Z,1.60
2022-08-08T10:27:42.566Z,1.88
2022-08-08T10:30:16.400Z,1.83
2022-08-08T10:33:01.564Z,1.70
2022-08-08T10:36:09.690Z,1.83
2022-08-08T10:38:21.402Z,1.80
2022-08-08T10:40:53.701Z,1.90
2022-08-08T10:43:23.181Z,1.42
2022-08-08T10:45:55.526Z,1.50
2022-08-08T10:48:34.116Z,1.80
2022-08-08T10:51:14.541Z,1.63
2022-08-08T10:53:57.792Z,1.70
2022-08-08T10:56:32.212Z,1.50
2022-08-08T10:59:01.305Z,1.50
2022-08-08T11:01:30.167Z,1.50
2022-08-08T11:04:04.659Z,1.25
2022-08-08T11:06:36.517Z,1.50
2022-08-08T11:09:19.823Z,1.45
2022-08-08T11:12:06.063Z,1.52
2022-08-08T11:14:53.695Z,1.58
2022-08-08T11:17:58.755Z,1.70
2022-08-08T11:20:14.620Z,1.40
2022-08-08T11:22:51.075Z,1.20
2022-08-08T11:25:52.874Z,1.30
2022-08-08T11:28:15.812Z,1.25
2022-08-08T11:30:50.041Z,1.20
2022-08-08T11:33:52.598Z,1.02
2022-08-08T11:36:15.504Z,1.20
2022-08-08T11:38:54.095Z,1.30
2022-08-08T11:41:24.384Z,1.10
2022-08-08T11:43:54.605Z,1.20
2022-08-08T11:46:28.096Z,1.10
2022-08-08T11:48:59.857Z,1.30
2022-08-08T11:51:30.191Z,1.30
2022-08-08T11:54:26.690Z,1.20
2022-08-08T11:56:57.989Z,1.40
2022-08-08T12:00:02.124Z,1.23
2022-08-08T12:02:39.982Z,1.35
2022-08-08T12:05:12.188Z,1.27
2022-08-08T12:07:51.022Z,1.40
2022-08-08T12:10:23.876Z,1.10
2022-08-08T12:13:03.523Z,1.27
2022-08-08T12:15:42.878Z,1.33
2022-08-08T12:18:21.237Z,1.65
2022-08-08T12:20:50.441Z,1.40
2022-08-08T12:23:39.869Z,1.40
2022-08-08T12:26:17.103Z,1.55
2022-08-08T12:28:57.491Z,1.20
2022-08-08T12:31:39.459Z,1.40
2022-08-08T12:34:37.288Z,1.30
2022-08-08T12:37:08.124Z,1.35
2022-08-08T12:40:01.235Z,1.10
2022-08-08T12:42:33.535Z,1.40
2022-08-08T12:45:19.960Z,1.27
2022-08-08T12:48:09.640Z,1.25
2022-08-08T12:50:49.345Z,1.10
2022-08-08T12:53:24.663Z,1.20
2022-08-08T12:56:17.777Z,1.20
2022-08-08T12:58:48.984Z,1.40
2022-08-08T13:01:17.304Z,1.38
2022-08-08T13:03:55.676Z,1.27
2022-08-08T13:06:26.432Z,1.00
2022-08-08T13:08:56.141Z,1.23
2022-08-08T13:11:28.684Z,1.10
2022-08-08T13:14:16.388Z,1.20
2022-08-08T13:16:49.070Z,1.10
2022-08-08T13:19:20.500Z,1.15
2022-08-08T13:22:02.637Z,1.08
2022-08-08T13:24:40.766Z,1.10
2022-08-08T13:27:14.940Z,1.10
2022-08-08T13:29:52.851Z,0.90
2022-08-08T13:32:23.876Z,0.90
2022-08-08T13:34:55.475Z,1.00
2022-08-08T13:37:51.905Z,1.00
2022-08-08T13:40:17.350Z,1.10
2022-08-08T13:42:46.587Z,0.93
2022-08-08T13:45:24.024Z,1.10
2022-08-08T13:47:58.044Z,1.00
2022-08-08T13:50:35.973Z,1.02
2022-08-08T13:53:24.394Z,1.10
2022-08-08T13:55:59.459Z,0.75
2022-08-08T13:58:29.376Z,1.02
2022-08-08T14:00:59.192Z,0.90
2022-08-08T14:03:53.473Z,1.02
2022-08-08T14:06:33.355Z,1.00
2022-08-08T14:09:25.228Z,0.90
2022-08-08T14:11:54.539Z,0.98
2022-08-08T14:14:26.154Z,1.02
2022-08-08T14:16:57.459Z,1.00
2022-08-08T14:19:55.700Z,1.30
2022-08-08T14:22:24.335Z,0.90
2022-08-08T14:24:55.620Z,0.95
2022-08-08T14:27:27.017Z,0.88
2022-08-08T14:29:59.631Z,0.80
2022-08-08T14:32:30.478Z,0.80
2022-08-08T14:35:04.494Z,0.80
2022-08-08T14:37:43.231Z,0.90
2022-08-08T14:40:23.973Z,1.00
2022-08-08T14:42:56.523Z,0.90
2022-08-08T14:45:33.198Z,0.82
2022-08-08T14:48:17.859Z,0.98
2022-08-08T14:51:06.477Z,1.05
2022-08-08T14:53:55.127Z,0.80
2022-08-08T14:56:25.742Z,0.90
2022-08-08T14:58:54.596Z,1.00
2022-08-08T15:01:40.964Z,1.00
2022-08-08T15:04:12.520Z,1.10
2022-08-08T15:06:42.332Z,1.02
2022-08-08T15:09:12.331Z,1.10
2022-08-08T15:11:46.649Z,1.00
2022-08-08T15:14:24.961Z,0.90
2022-08-08T15:16:54.987Z,1.10
2022-08-08T15:19:28.216Z,0.95
2022-08-08T15:21:57.960Z,1.10
2022-08-08T15:24:31.226Z,1.15
2022-08-08T15:27:19.916Z,0.90
2022-08-08T15:29:48.544Z,1.10
2022-08-08T15:32:20.487Z,0.93
2022-08-08T15:35:00.864Z,0.90
2022-08-08T15:37:32.817Z,0.90
2022-08-08T15:40:02.010Z,0.90
2022-08-08T15:42:33.169Z,0.75
2022-08-08T15:45:02.378Z,0.85
2022-08-08T15:47:31.998Z,0.80
2022-08-08T15:50:02.347Z,0.80
2022-08-08T15:52:31.410Z,0.90
2022-08-08T15:55:02.438Z,0.80
2022-08-08T15:57:35.610Z,0.90
2022-08-08T16:00:26.877Z,0.85
2022-08-08T16:02:59.091Z,0.88
2022-08-08T16:05:35.294Z,0.77
2022-08-08T16:08:06.713Z,1.00
2022-08-08T16:13:07.542Z,1.00
2022-08-08T16:13:43.369Z,0.85
2022-08-08T16:16:18.165Z,0.88
2022-08-08T16:18:57.337Z,1.02
2022-08-08T16:21:31.711Z,0.98
2022-08-08T16:24:01.897Z,0.85
2022-08-08T16:26:34.107Z,1.00
2022-08-08T16:29:07.729Z,0.80
2022-08-08T16:31:40.460Z,1.10
2022-08-08T16:34:09.231Z,1.10
2022-08-08T16:36:40.814Z,0.95
2022-08-08T16:39:27.839Z,0.82
2022-08-08T16:42:01.333Z,1.02
2022-08-08T16:44:33.843Z,1.00
2022-08-08T16:47:21.986Z,0.85
2022-08-08T16:50:13.680Z,0.98
2022-08-08T16:55:03.014Z,0.80
2022-08-08T16:55:55.970Z,0.90
2022-08-08T16:58:21.835Z,0.80
2022-08-08T17:00:54.612Z,0.85
2022-08-08T17:03:24.899Z,0.80
2022-08-08T17:06:03.378Z,0.90
2022-08-08T17:08:35.287Z,0.93
2022-08-08T17:11:10.446Z,0.90
2022-08-08T17:13:49.707Z,0.80
2022-08-08T17:16:22.236Z,1.00
2022-08-08T17:18:53.193Z,1.00
2022-08-08T17:21:21.990Z,0.90
2022-08-08T17:23:58.913Z,0.93
2022-08-08T17:26:31.339Z,1.00
2022-08-08T17:29:04.035Z,0.90
2022-08-08T17:31:44.797Z,1.00
2022-08-08T17:34:52.687Z,1.00
2022-08-08T17:37:09.010Z,1.23
2022-08-08T17:40:03.748Z,0.80
2022-08-08T17:42:30.376Z,0.90
2022-08-08T17:44:58.646Z,0.90
2022-08-08T17:47:28.009Z,1.10
2022-08-08T17:50:00.728Z,0.80
2022-08-08T17:52:30.705Z,1.00
2022-08-08T17:55:00.313Z,1.05
2022-08-08T17:57:28.929Z,1.00
2022-08-08T18:00:03.848Z,0.95
2022-08-08T18:02:32.356Z,1.02
2022-08-08T18:05:04.950Z,0.90
2022-08-08T18:08:02.573Z,1.10
2022-08-08T18:10:31.394Z,1.10
2022-08-08T18:13:01.782Z,1.05
2022-08-08T18:15:31.453Z,1.20
2022-08-08T18:18:27.533Z,1.38
2022-08-08T18:20:54.832Z,1.05
2022-08-08T18:23:23.497Z,1.33
2022-08-08T18:25:53.461Z,1.10
2022-08-08T18:28:25.551Z,1.02
2022-08-08T18:30:54.202Z,1.40
2022-08-08T18:34:10.369Z,1.70
2022-08-08T18:36:23.127Z,1.50
2022-08-08T18:38:52.978Z,1.40
2022-08-08T18:41:51.608Z,1.33
2022-08-08T18:44:12.761Z,1.60
2022-08-08T18:46:56.113Z,1.60
2022-08-08T18:49:32.266Z,1.30
2022-08-08T18:52:18.342Z,1.30
2022-08-08T18:55:00.843Z,1.30
2022-08-08T18:57:44.749Z,1.30
2022-08-08T19:00:16.741Z,1.20
2022-08-08T19:02:56.593Z,1.30
2022-08-08T19:05:32.054Z,1.30
2022-08-08T19:08:25.038Z,1.30
2022-08-08T19:10:58.924Z,1.45
2022-08-08T19:13:53.503Z,1.23
2022-08-08T19:16:19.363Z,1.33
2022-08-08T19:19:00.271Z,1.42
2022-08-08T19:21:33.752Z,1.80
2022-08-08T19:24:38.755Z,2.38
2022-08-08T19:27:06.996Z,1.98
2022-08-08T19:29:40.673Z,1.70
2022-08-08T19:32:13.231Z,1.60
2022-08-08T19:34:49.180Z,1.60
2022-08-08T19:37:43.800Z,1.60
2022-08-08T19:40:16.115Z,2.40
2022-08-08T19:42:45.135Z,1.90
2022-08-08T19:45:57.747Z,2.30
2022-08-08T19:48:03.343Z,2.23
2022-08-08T19:50:33.032Z,2.17
2022-08-08T19:53:01.411Z,2.27
2022-08-08T19:55:34.093Z,2.57
2022-08-08T19:58:02.410Z,3.40
2022-08-08T20:00:34.426Z,3.97
2022-08-08T20:03:14.575Z,4.30
2022-08-08T20:06:13.627Z,4.20
2022-08-08T20:08:32.309Z,3.23
2022-08-08T20:11:01.219Z,2.00
2022-08-08T20:14:34.928Z,2.10
2022-08-08T20:16:20.459Z,3.07
2022-08-08T20:18:53.072Z,2.93
2022-08-08T20:21:25.122Z,1.93
2022-08-08T20:23:57.585Z,2.00
2022-08-08T20:26:33.459Z,1.70
2022-08-08T20:29:02.819Z,1.37
2022-08-08T20:31:47.309Z,1.33
2022-08-08T20:34:28.764Z,1.20
2022-08-08T20:37:00.992Z,1.40
2022-08-08T20:39:39.349Z,1.37
2022-08-08T20:42:20.406Z,1.37
2022-08-08T20:44:52.037Z,1.30
2022-08-08T20:47:24.065Z,1.50
2022-08-08T20:49:57.934Z,1.20
2022-08-08T20:52:27.835Z,1.20
2022-08-08T20:54:56.332Z,1.20
2022-08-08T20:57:26.900Z,1.17
2022-08-08T20:59:56.282Z,1.40
2022-08-08T21:02:26.621Z,1.10
2022-08-08T21:04:57.393Z,1.40
2022-08-08T21:07:31.330Z,1.60
2022-08-08T21:10:16.389Z,1.47
2022-08-08T21:12:46.257Z,1.33
2022-08-08T21:16:04.132Z,1.00
2022-08-08T21:18:06.550Z,1.10
2022-08-08T21:20:35.709Z,1.60
2022-08-08T21:23:08.888Z,1.63
2022-08-08T21:25:37.411Z,1.40
2022-08-08T21:28:14.847Z,1.33
2022-08-08T21:30:45.189Z,1.20
2022-08-08T21:33:20.527Z,1.43
2022-08-08T21:36:16.752Z,1.20
2022-08-08T21:38:37.361Z,1.50
2022-08-08T21:41:05.517Z,1.20
2022-08-08T21:43:35.628Z,1.20
2022-08-08T21:48:04.175Z,1.43
2022-08-08T21:48:55.375Z,1.23
2022-08-08T21:54:17.401Z,1.10
2022-08-08T21:54:23.209Z,1.20
2022-08-08T21:57:02.765Z,1.33
2022-08-08T22:00:01.373Z,1.17
2022-08-08T22:02:23.438Z,1.20
2022-08-08T22:04:58.731Z,1.27
2022-08-08T22:07:39.523Z,1.20
2022-08-08T22:10:09.955Z,1.23
2022-08-08T22:12:46.898Z,1.27
2022-08-08T22:15:15.047Z,1.10
2022-08-08T22:17:45.580Z,1.20
2022-08-08T22:20:23.523Z,1.40
2022-08-08T22:22:52.593Z,1.50
2022-08-08T22:25:24.956Z,1.60
2022-08-08T22:28:02.968Z,1.50
2022-08-08T22:30:33.517Z,1.67
2022-08-08T22:33:02.164Z,1.63
2022-08-08T22:36:04.720Z,1.60
2022-08-08T22:38:19.963Z,1.60
2022-08-08T22:40:49.496Z,1.10
2022-08-08T22:43:17.923Z,1.10
2022-08-08T22:45:46.608Z,1.20
2022-08-08T22:48:21.704Z,1.20
2022-08-08T22:50:51.858Z,1.37
2022-08-08T22:54:30.360Z,1.43
2022-08-08T22:56:08.410Z,1.40
2022-08-08T22:58:36.372Z,2.23
2022-08-08T23:02:01.229Z,1.40
2022-08-08T23:03:56.702Z,1.50
2022-08-08T23:06:26.912Z,1.40
2022-08-08T23:08:58.874Z,1.30
2022-08-08T23:11:57.978Z,1.50
2022-08-08T23:14:17.745Z,1.20
2022-08-08T23:16:57.873Z,1.20
2022-08-08T23:19:32.165Z,1.27
2022-08-08T23:22:04.554Z,1.43
2022-08-08T23:24:36.293Z,1.20
2022-08-08T23:27:06.002Z,1.30
2022-08-08T23:29:34.544Z,1.40
2022-08-08T23:32:04.387Z,1.20
2022-08-08T23:34:32.801Z,1.40
2022-08-08T23:37:03.545Z,1.40
2022-08-08T23:39:41.471Z,1.53
2022-08-08T23:42:17.402Z,1.50
2022-08-08T23:44:49.715Z,1.23
2022-08-08T23:49:04.765Z,1.50
2022-08-08T23:50:29.760Z,1.20
2022-08-08T23:53:05.075Z,1.43
2022-08-08T23:55:38.310Z,1.47
2022-08-08T23:58:32.002Z,1.20
